createdAt,value
2022-08-07T00:00:18.778Z,77.93
2022-08-07T00:02:46.989Z,77.82
2022-08-07T00:05:14.126Z,77.65
2022-08-07T00:07:41.688Z,77.67
2022-08-07T00:10:27.206Z,77.73
2022-08-07T00:13:00.485Z,77.91
2022-08-07T00:15:38.170Z,77.90
2022-08-07T00:18:19.899Z,77.83
2022-08-07T00:20:49.637Z,78.14
2022-08-07T00:23:17.708Z,78.20
2022-08-07T00:25:45.801Z,78.67
2022-08-07T00:28:21.989Z,78.64
2022-08-07T00:30:49.457Z,78.71
2022-08-07T00:33:16.642Z,78.87
2022-08-07T00:35:49.502Z,79.20
2022-08-07T00:38:16.874Z,79.06
2022-08-07T00:40:59.889Z,78.90
2022-08-07T00:44:01.308Z,79.01
2022-08-07T00:46:14.593Z,79.41
2022-08-07T00:48:42.411Z,79.47
2022-08-07T00:51:09.976Z,79.78
2022-08-07T00:53:38.970Z,79.73
2022-08-07T00:56:18.524Z,79.57
2022-08-07T00:58:47.296Z,79.58
2022-08-07T01:01:18.172Z,79.52
2022-08-07T01:03:57.127Z,79.18
2022-08-07T01:06:30.453Z,79.29
2022-08-07T01:09:01.058Z,79.66
2022-08-07T01:12:09.539Z,79.50
2022-08-07T01:14:21.449Z,79.37
2022-08-07T01:16:56.558Z,79.42
2022-08-07T01:19:27.036Z,79.49
2022-08-07T01:21:59.515Z,79.60
2022-08-07T01:24:30.643Z,79.75
2022-08-07T01:26:59.875Z,80.15
2022-08-07T01:29:31.417Z,79.82
2022-08-07T01:32:05.564Z,79.87
2022-08-07T01:34:44.511Z,79.74
2022-08-07T01:37:17.297Z,79.32
2022-08-07T01:39:48.011Z,79.04
2022-08-07T01:42:39.794Z,79.04
2022-08-07T01:45:09.835Z,79.18
2022-08-07T01:48:17.626Z,79.30
2022-08-07T01:50:32.175Z,79.21
2022-08-07T01:53:00.484Z,79.11
2022-08-07T01:55:33.659Z,79.10
2022-08-07T01:58:06.727Z,78.94
2022-08-07T02:01:09.523Z,78.84
2022-08-07T02:03:48.660Z,78.88
2022-08-07T02:06:31.614Z,79.04
2022-08-07T02:09:04.373Z,79.13
2022-08-07T02:12:03.720Z,79.03
2022-08-07T02:14:35.711Z,78.87
2022-08-07T02:17:11.222Z,79.50
2022-08-07T02:20:04.586Z,79.37
2022-08-07T02:22:29.988Z,79.47
2022-08-07T02:24:58.035Z,80.09
2022-08-07T02:27:34.229Z,80.19
2022-08-07T02:30:07.447Z,80.52
2022-08-07T02:32:39.524Z,80.47
2022-08-07T02:36:29.364Z,80.58
2022-08-07T02:38:15.672Z,80.52
2022-08-07T02:40:46.683Z,80.69
2022-08-07T02:43:15.659Z,80.83
2022-08-07T02:45:59.145Z,80.90
2022-08-07T02:48:30.873Z,80.89
2022-08-07T02:51:03.528Z,80.59
2022-08-07T02:53:38.695Z,81.04
2022-08-07T02:56:17.437Z,80.84
2022-08-07T02:58:50.533Z,81.21
2022-08-07T03:01:36.009Z,80.71
2022-08-07T03:04:12.576Z,80.76
2022-08-07T03:06:44.924Z,80.36
2022-08-07T03:09:14.056Z,80.33
2022-08-07T03:11:52.258Z,80.62
2022-08-07T03:14:28.030Z,80.30
2022-08-07T03:16:56.682Z,80.09
2022-08-07T03:19:29.004Z,80.19
2022-08-07T03:22:06.262Z,80.30
2022-08-07T03:24:34.724Z,80.51
2022-08-07T03:27:05.272Z,80.43
2022-08-07T03:29:49.637Z,80.15
2022-08-07T03:32:21.991Z,80.02
2022-08-07T03:35:16.980Z,79.92
2022-08-07T03:37:45.911Z,79.68
2022-08-07T03:40:15.741Z,79.85
2022-08-07T03:42:44.229Z,79.26
2022-08-07T03:45:12.185Z,78.91
2022-08-07T03:47:59.433Z,78.85
2022-08-07T03:50:28.764Z,79.07
2022-08-07T03:53:00.180Z,79.10
2022-08-07T03:55:58.142Z,79.75
2022-08-07T03:59:05.127Z,79.73
2022-08-07T04:01:07.636Z,79.97
2022-08-07T04:03:53.549Z,80.63
2022-08-07T04:06:36.318Z,80.91
2022-08-07T04:09:15.436Z,80.86
2022-08-07T04:12:25.501Z,80.74
2022-08-07T04:14:38.817Z,80.82
2022-08-07T04:17:19.966Z,80.68
2022-08-07T04:19:52.050Z,80.56
2022-08-07T04:22:20.194Z,80.18
2022-08-07T04:24:51.356Z,80.52
2022-08-07T04:27:35.972Z,80.90
2022-08-07T04:30:11.743Z,81.12
2022-08-07T04:32:44.959Z,80.89
2022-08-07T04:35:15.912Z,80.74
2022-08-07T04:38:03.711Z,80.83
2022-08-07T04:40:31.390Z,80.60
2022-08-07T04:43:01.626Z,80.50
2022-08-07T04:46:00.372Z,80.33
2022-08-07T04:48:44.488Z,80.12
2022-08-07T04:51:27.781Z,79.59
2022-08-07T04:54:06.949Z,79.38
2022-08-07T04:58:13.693Z,79.02
2022-08-07T05:00:11.803Z,78.48
2022-08-07T05:02:36.565Z,78.44
2022-08-07T05:05:53.436Z,78.21
2022-08-07T05:09:00.024Z,77.80
2022-08-07T05:11:57.262Z,77.46
2022-08-07T05:14:51.873Z,77.44
2022-08-07T05:17:52.777Z,76.75
2022-08-07T05:20:09.983Z,76.25
2022-08-07T05:22:38.467Z,75.53
2022-08-07T05:25:25.278Z,75.02
2022-08-07T05:28:02.452Z,74.58
2022-08-07T05:30:47.150Z,74.42
2022-08-07T05:33:15.214Z,73.99
2022-08-07T05:35:46.744Z,74.18
2022-08-07T05:39:00.643Z,73.55
2022-08-07T05:41:11.966Z,73.35
2022-08-07T05:43:49.569Z,73.16
2022-08-07T05:46:31.667Z,72.46
2022-08-07T05:48:59.748Z,71.74
2022-08-07T05:51:31.838Z,70.88
2022-08-07T05:54:13.096Z,70.57
2022-08-07T05:56:52.409Z,70.22
2022-08-07T05:59:21.267Z,69.69
2022-08-07T06:01:49.515Z,69.10
2022-08-07T06:04:18.408Z,68.62
2022-08-07T06:06:47.668Z,68.88
2022-08-07T06:10:03.801Z,68.51
2022-08-07T06:12:15.325Z,68.02
2022-08-07T06:14:49.693Z,68.83
2022-08-07T06:17:19.415Z,68.41
2022-08-07T06:20:03.451Z,69.02
2022-08-07T06:22:38.924Z,68.61
2022-08-07T06:25:10.181Z,69.16
2022-08-07T06:27:44.270Z,69.91
2022-08-07T06:30:37.987Z,69.40
2022-08-07T06:33:16.185Z,68.99
2022-08-07T06:35:45.893Z,69.69
2022-08-07T06:38:31.643Z,69.60
2022-08-07T06:40:59.842Z,72.00
2022-08-07T06:43:39.442Z,77.19
2022-08-07T06:46:12.156Z,78.50
2022-08-07T06:48:42.173Z,83.69
2022-08-07T06:51:30.943Z,84.18
2022-08-07T06:55:29.150Z,87.08
2022-08-07T06:56:51.772Z,86.81
2022-08-07T07:00:14.594Z,86.87
2022-08-07T07:02:49.052Z,86.12
2022-08-07T07:05:06.956Z,85.61
2022-08-07T07:07:59.402Z,86.32
2022-08-07T07:10:29.686Z,87.87
2022-08-07T07:13:04.573Z,85.82
2022-08-07T07:15:36.154Z,87.27
2022-08-07T07:18:37.669Z,85.36
2022-08-07T07:21:40.204Z,85.49
2022-08-07T07:24:17.990Z,85.21
2022-08-07T07:26:51.906Z,85.72
2022-08-07T07:29:38.710Z,82.54
2022-08-07T07:32:12.942Z,80.89
2022-08-07T07:34:48.586Z,77.17
2022-08-07T07:37:45.480Z,77.69
2022-08-07T07:40:14.958Z,75.73
2022-08-07T07:42:47.116Z,73.95
2022-08-07T07:45:19.591Z,69.75
2022-08-07T07:47:53.259Z,66.26
2022-08-07T07:50:36.681Z,67.88
2022-08-07T07:53:20.462Z,66.41
2022-08-07T07:55:57.975Z,64.41
2022-08-07T07:58:40.165Z,63.06
2022-08-07T08:02:03.331Z,61.51
2022-08-07T08:04:09.523Z,63.03
2022-08-07T08:06:40.787Z,57.98
2022-08-07T08:09:20.287Z,58.98
2022-08-07T08:12:02.963Z,57.11
2022-08-07T08:14:36.399Z,58.67
2022-08-07T08:17:56.230Z,56.00
2022-08-07T08:20:22.232Z,56.31
2022-08-07T08:23:09.406Z,55.42
2022-08-07T08:25:56.976Z,54.23
2022-08-07T08:28:38.112Z,53.47
2022-08-07T08:31:22.951Z,52.11
2022-08-07T08:34:06.216Z,51.84
2022-08-07T08:36:36.692Z,50.96
2022-08-07T08:39:07.724Z,49.33
2022-08-07T08:41:57.705Z,50.30
2022-08-07T08:44:49.008Z,50.46
2022-08-07T08:47:31.429Z,51.80
2022-08-07T08:50:34.750Z,49.52
2022-08-07T08:53:15.220Z,48.83
2022-08-07T08:55:58.885Z,48.87
2022-08-07T08:58:35.291Z,48.52
2022-08-07T09:01:15.059Z,48.91
2022-08-07T09:03:55.574Z,50.64
2022-08-07T09:06:42.717Z,50.72
2022-08-07T09:09:44.622Z,48.36
2022-08-07T09:12:31.587Z,47.43
2022-08-07T09:16:25.606Z,47.70
2022-08-07T09:18:53.307Z,46.64
2022-08-07T09:22:09.725Z,46.64
2022-08-07T09:24:59.451Z,47.22
2022-08-07T09:27:38.363Z,48.20
2022-08-07T09:30:27.902Z,46.33
2022-08-07T09:33:12.133Z,47.96
2022-08-07T09:36:06.015Z,47.60
2022-08-07T09:38:54.738Z,46.73
2022-08-07T09:41:58.437Z,45.91
2022-08-07T09:44:58.364Z,46.43
2022-08-07T09:47:58.963Z,45.54
2022-08-07T09:51:25.951Z,45.93
2022-08-07T09:53:59.311Z,45.48
2022-08-07T09:56:46.440Z,43.68
2022-08-07T10:00:00.330Z,43.92
2022-08-07T10:02:31.582Z,43.14
2022-08-07T10:05:12.083Z,43.27
2022-08-07T10:07:58.557Z,41.42
2022-08-07T10:12:00.248Z,41.82
2022-08-07T10:14:12.794Z,40.59
2022-08-07T10:16:59.712Z,41.54
2022-08-07T10:19:46.136Z,41.00
2022-08-07T10:22:45.397Z,41.64
2022-08-07T10:25:13.127Z,41.92
2022-08-07T10:27:58.803Z,42.32
2022-08-07T10:30:48.275Z,43.69
2022-08-07T10:34:06.218Z,42.90
2022-08-07T10:36:45.459Z,43.32
2022-08-07T10:40:05.210Z,42.42
2022-08-07T10:42:38.634Z,41.99
2022-08-07T10:45:44.420Z,41.31
2022-08-07T10:48:21.461Z,40.00
2022-08-07T10:51:16.874Z,40.41
2022-08-07T10:54:08.838Z,39.84
2022-08-07T10:56:54.868Z,40.56
2022-08-07T10:59:47.985Z,38.97
2022-08-07T11:02:42.476Z,40.21
2022-08-07T11:05:36.007Z,39.92
2022-08-07T11:08:46.059Z,40.30
2022-08-07T11:11:24.290Z,39.26
2022-08-07T11:14:44.755Z,39.42
2022-08-07T11:16:52.821Z,40.26
2022-08-07T11:19:37.448Z,40.34
2022-08-07T11:22:33.264Z,40.50
2022-08-07T11:25:42.560Z,40.36
2022-08-07T11:28:24.694Z,40.41
2022-08-07T11:31:08.891Z,41.39
2022-08-07T11:33:53.541Z,41.41
2022-08-07T11:36:37.638Z,41.96
2022-08-07T11:39:19.489Z,41.60
2022-08-07T11:42:02.076Z,42.00
2022-08-07T11:44:57.951Z,40.12
2022-08-07T11:48:03.448Z,39.68
2022-08-07T11:51:04.631Z,38.31
2022-08-07T11:54:02.350Z,38.21
2022-08-07T11:57:01.315Z,36.61
2022-08-07T12:00:10.777Z,38.85
2022-08-07T12:03:45.369Z,37.81
2022-08-07T12:06:37.694Z,36.11
2022-08-07T12:09:16.257Z,36.58
2022-08-07T12:12:09.450Z,36.67
2022-08-07T12:14:55.762Z,37.61
2022-08-07T12:17:58.609Z,37.68
2022-08-07T12:20:36.538Z,38.94
2022-08-07T12:23:09.110Z,39.44
2022-08-07T12:26:03.053Z,38.27
2022-08-07T12:29:07.017Z,37.93
2022-08-07T12:32:01.743Z,35.27
2022-08-07T12:34:33.712Z,35.86
2022-08-07T12:37:01.831Z,35.04
2022-08-07T12:39:44.506Z,34.35
2022-08-07T12:42:27.870Z,35.47
2022-08-07T12:44:58.392Z,35.06
2022-08-07T12:47:44.033Z,34.09
2022-08-07T12:50:49.680Z,35.02
2022-08-07T12:54:03.155Z,34.78
2022-08-07T12:56:31.337Z,34.33
2022-08-07T12:58:59.785Z,34.00
2022-08-07T13:01:32.616Z,32.40
2022-08-07T13:04:13.761Z,31.57
2022-08-07T13:08:14.363Z,31.26
2022-08-07T13:10:28.852Z,32.73
2022-08-07T13:13:46.659Z,32.94
2022-08-07T13:16:21.654Z,32.45
2022-08-07T13:19:21.645Z,32.84
2022-08-07T13:22:31.618Z,32.45
2022-08-07T13:25:24.175Z,32.81
2022-08-07T13:28:13.353Z,32.92
2022-08-07T13:30:49.131Z,32.53
2022-08-07T13:34:33.212Z,32.58
2022-08-07T13:36:51.385Z,32.62
2022-08-07T13:40:36.371Z,33.37
2022-08-07T13:42:46.478Z,34.19
2022-08-07T13:46:11.610Z,33.67
2022-08-07T13:48:05.845Z,33.29
2022-08-07T13:50:58.849Z,33.72
2022-08-07T13:53:55.239Z,33.65
2022-08-07T13:56:36.367Z,33.00
2022-08-07T13:59:15.774Z,32.04
2022-08-07T14:01:59.268Z,31.25
2022-08-07T14:04:35.731Z,31.36
2022-08-07T14:07:09.597Z,31.52
2022-08-07T14:09:42.214Z,31.49
2022-08-07T14:12:55.679Z,31.49
2022-08-07T14:15:31.996Z,31.56
2022-08-07T14:18:28.611Z,31.11
2022-08-07T14:22:00.541Z,31.39
2022-08-07T14:24:06.605Z,31.23
2022-08-07T14:26:50.733Z,29.57
2022-08-07T14:30:06.432Z,30.82
2022-08-07T14:32:15.115Z,30.61
2022-08-07T14:37:36.294Z,31.26
2022-08-07T14:40:17.119Z,30.70
2022-08-07T14:43:56.038Z,30.17
2022-08-07T14:45:54.614Z,29.68
2022-08-07T14:48:27.627Z,29.79
2022-08-07T14:51:01.702Z,29.47
2022-08-07T14:54:05.923Z,29.44
2022-08-07T15:00:05.322Z,30.63
2022-08-07T15:04:57.871Z,31.18
2022-08-07T15:07:47.135Z,30.45
2022-08-07T15:10:25.016Z,31.14
2022-08-07T15:13:00.060Z,30.85
2022-08-07T15:15:40.602Z,30.94
2022-08-07T15:18:14.286Z,30.58
2022-08-07T15:21:03.984Z,29.98
2022-08-07T15:26:33.921Z,29.89
2022-08-07T15:30:08.644Z,29.75
2022-08-07T15:32:01.903Z,30.39
2022-08-07T15:34:50.569Z,30.65
2022-08-07T15:37:27.600Z,30.48
2022-08-07T15:39:59.168Z,30.12
2022-08-07T15:42:46.368Z,30.36
2022-08-07T15:45:20.989Z,30.67
2022-08-07T15:48:01.924Z,31.01
2022-08-07T15:50:37.935Z,30.58
2022-08-07T15:53:51.639Z,29.56
2022-08-07T15:56:33.100Z,30.50
2022-08-07T15:59:06.468Z,30.23
2022-08-07T16:02:01.929Z,30.31
2022-08-07T16:04:32.107Z,30.50
2022-08-07T16:07:04.684Z,30.95
2022-08-07T16:09:41.136Z,30.97
2022-08-07T16:12:31.617Z,31.07
2022-08-07T16:15:54.823Z,31.04
2022-08-07T16:18:50.053Z,30.87
2022-08-07T16:21:44.058Z,30.97
2022-08-07T16:24:33.866Z,30.27
2022-08-07T16:27:45.125Z,29.75
2022-08-07T16:30:31.715Z,30.21
2022-08-07T16:34:01.305Z,30.67
2022-08-07T16:36:19.662Z,30.68
2022-08-07T16:39:33.460Z,31.43
2022-08-07T16:42:22.412Z,31.16
2022-08-07T16:45:15.613Z,31.24
2022-08-07T16:48:09.487Z,31.11
2022-08-07T16:51:20.988Z,31.13
2022-08-07T16:53:48.086Z,30.87
2022-08-07T16:56:29.933Z,30.60
2022-08-07T16:59:11.190Z,31.46
2022-08-07T17:02:09.084Z,31.36
2022-08-07T17:04:51.050Z,31.87
2022-08-07T17:07:55.087Z,32.01
2022-08-07T17:10:38.750Z,32.30
2022-08-07T17:13:41.645Z,32.21
2022-08-07T17:16:40.042Z,32.00
2022-08-07T17:19:17.652Z,32.32
2022-08-07T17:22:30.212Z,32.38
2022-08-07T17:25:13.202Z,32.95
2022-08-07T17:27:59.407Z,32.73
2022-08-07T17:30:36.075Z,32.83
2022-08-07T17:34:10.023Z,32.68
2022-08-07T17:36:27.466Z,33.34
2022-08-07T17:39:58.892Z,34.37
2022-08-07T17:42:59.674Z,35.61
2022-08-07T17:45:40.397Z,36.82
2022-08-07T17:48:30.742Z,37.69
2022-08-07T17:51:16.311Z,38.12
2022-08-07T17:54:13.149Z,38.88
2022-08-07T17:57:19.317Z,38.88
2022-08-07T17:59:55.174Z,39.45
2022-08-07T18:02:29.717Z,40.17
2022-08-07T18:05:20.650Z,40.50
2022-08-07T18:08:24.386Z,40.64
2022-08-07T18:12:16.539Z,41.06
2022-08-07T18:14:37.578Z,41.45
2022-08-07T18:18:45.374Z,42.00
2022-08-07T18:21:11.036Z,42.86
2022-08-07T18:23:43.106Z,43.75
2022-08-07T18:26:16.394Z,44.74
2022-08-07T18:30:07.092Z,45.27
2022-08-07T18:32:17.746Z,45.93
2022-08-07T18:35:07.895Z,46.78
2022-08-07T18:38:55.184Z,46.97
2022-08-07T18:41:09.312Z,47.20
2022-08-07T18:43:49.722Z,47.89
2022-08-07T18:46:27.214Z,48.13
2022-08-07T18:50:18.865Z,48.92
2022-08-07T18:52:37.557Z,49.11
2022-08-07T18:55:40.524Z,49.21
2022-08-07T18:58:22.641Z,49.75
2022-08-07T19:01:00.845Z,49.99
2022-08-07T19:03:55.701Z,50.28
2022-08-07T19:06:48.355Z,50.73
2022-08-07T19:09:55.551Z,50.86
2022-08-07T19:12:59.174Z,50.95
2022-08-07T19:16:04.759Z,50.84
2022-08-07T19:18:45.089Z,51.11
2022-08-07T19:21:46.629Z,51.32
2022-08-07T19:24:48.805Z,51.13
2022-08-07T19:28:57.463Z,51.28
2022-08-07T19:31:04.297Z,51.54
2022-08-07T19:33:10.175Z,51.61
2022-08-07T19:35:41.147Z,51.15
2022-08-07T19:38:16.826Z,48.88
2022-08-07T19:40:50.407Z,49.41
2022-08-07T19:43:50.123Z,48.46
2022-08-07T19:46:10.526Z,49.65
2022-08-07T19:48:42.438Z,48.80
2022-08-07T19:51:19.344Z,49.72
2022-08-07T19:54:31.356Z,49.17
2022-08-07T19:57:51.466Z,47.90
2022-08-07T19:59:40.540Z,45.27
2022-08-07T20:02:24.147Z,44.69
2022-08-07T20:04:56.203Z,44.44
2022-08-07T20:07:46.096Z,44.04
2022-08-07T20:10:36.797Z,44.12
2022-08-07T20:13:22.475Z,44.55
2022-08-07T20:15:53.890Z,44.58
2022-08-07T20:18:33.641Z,44.78
2022-08-07T20:21:20.824Z,44.90
2022-08-07T20:24:04.176Z,45.22
2022-08-07T20:26:45.201Z,44.66
2022-08-07T20:29:48.672Z,44.62
2022-08-07T20:32:11.651Z,44.81
2022-08-07T20:34:52.096Z,44.74
2022-08-07T20:37:25.458Z,44.63
2022-08-07T20:40:02.521Z,44.97
2022-08-07T20:42:33.904Z,44.79
2022-08-07T20:45:01.759Z,44.96
2022-08-07T20:47:56.877Z,45.48
2022-08-07T20:50:22.031Z,45.77
2022-08-07T20:52:52.917Z,46.41
2022-08-07T20:55:23.898Z,46.69
2022-08-07T20:58:03.879Z,47.12
2022-08-07T21:00:42.841Z,47.59
2022-08-07T21:03:19.301Z,48.23
2022-08-07T21:05:56.514Z,48.46
2022-08-07T21:08:37.851Z,48.12
2022-08-07T21:11:14.474Z,48.10
2022-08-07T21:14:16.595Z,48.38
2022-08-07T21:16:57.016Z,47.87
2022-08-07T21:19:51.005Z,47.28
2022-08-07T21:22:28.620Z,47.27
2022-08-07T21:25:12.361Z,47.15
2022-08-07T21:28:01.804Z,47.05
2022-08-07T21:30:39.295Z,46.85
2022-08-07T21:33:17.709Z,46.51
2022-08-07T21:36:11.619Z,46.74
2022-08-07T21:39:02.309Z,46.89
2022-08-07T21:42:01.416Z,46.64
2022-08-07T21:44:44.262Z,47.12
2022-08-07T21:47:34.657Z,47.16
2022-08-07T21:50:06.100Z,47.16
2022-08-07T21:52:58.762Z,47.77
2022-08-07T21:55:31.876Z,47.75
2022-08-07T21:58:45.767Z,48.19
2022-08-07T22:01:20.976Z,48.31
2022-08-07T22:04:11.979Z,48.53
2022-08-07T22:07:01.819Z,49.01
2022-08-07T22:09:34.787Z,49.15
2022-08-07T22:12:21.741Z,49.48
2022-08-07T22:16:42.807Z,49.28
2022-08-07T22:17:57.899Z,49.33
2022-08-07T22:20:40.050Z,49.72
2022-08-07T22:23:25.282Z,50.01
2022-08-07T22:26:22.955Z,50.57
2022-08-07T22:29:15.160Z,50.49
2022-08-07T22:32:00.084Z,50.49
2022-08-07T22:34:41.793Z,50.81
2022-08-07T22:38:03.432Z,50.70
2022-08-07T22:41:10.007Z,50.77
2022-08-07T22:43:56.402Z,50.84
2022-08-07T22:47:03.526Z,50.54
2022-08-07T22:49:33.829Z,50.16
2022-08-07T22:52:19.656Z,50.36
2022-08-07T22:55:29.695Z,50.03
2022-08-07T22:57:58.982Z,50.02
2022-08-07T23:01:02.881Z,50.34
2022-08-07T23:03:59.069Z,50.36
2022-08-07T23:06:30.342Z,50.72
2022-08-07T23:10:00.650Z,51.02
2022-08-07T23:12:51.576Z,51.49
2022-08-07T23:16:07.248Z,52.31
2022-08-07T23:19:48.223Z,52.54
2022-08-07T23:22:52.307Z,52.74
2022-08-07T23:25:32.065Z,53.16
2022-08-07T23:28:28.703Z,53.45
2022-08-07T23:31:06.960Z,53.57
2022-08-07T23:34:34.012Z,53.71
2022-08-07T23:37:19.444Z,54.47
2022-08-07T23:40:03.182Z,55.08
2022-08-07T23:42:45.562Z,55.68
2022-08-07T23:46:03.413Z,55.49
2022-08-07T23:48:40.746Z,56.10
2022-08-07T23:52:59.570Z,56.84
2022-08-07T23:54:36.229Z,56.66
2022-08-07T23:57:31.072Z,56.07
